createdAt,value
2022-12-11T00:02:39.620Z,95.64
2022-12-11T00:05:45.901Z,95.65
2022-12-11T00:08:54.369Z,95.62
2022-12-11T00:11:59.793Z,95.55
2022-12-11T00:15:05.513Z,94.99
2022-12-11T00:18:13.264Z,95.00
2022-12-11T00:21:18.677Z,94.90
2022-12-11T00:24:23.914Z,94.77
2022-12-11T00:27:29.871Z,94.67
2022-12-11T00:30:35.139Z,94.32
2022-12-11T00:33:40.531Z,94.26
2022-12-11T00:36:45.964Z,94.17
2022-12-11T00:39:51.377Z,94.41
2022-12-11T00:42:56.677Z,94.33
2022-12-11T00:46:02.129Z,93.99
2022-12-11T00:49:07.598Z,93.75
2022-12-11T00:52:12.973Z,93.49
2022-12-11T00:55:18.423Z,93.50
2022-12-11T00:58:23.874Z,93.54
2022-12-11T01:01:30.377Z,93.46
2022-12-11T01:04:37.579Z,93.53
2022-12-11T01:07:43.433Z,93.34
2022-12-11T01:10:49.077Z,93.48
2022-12-11T01:13:54.400Z,93.52
2022-12-11T01:16:59.753Z,93.64
2022-12-11T01:20:05.655Z,93.57
2022-12-11T01:23:13.081Z,93.27
2022-12-11T01:26:18.708Z,93.21
2022-12-11T01:29:24.047Z,93.29
2022-12-11T01:32:29.710Z,93.05
2022-12-11T01:35:34.957Z,93.11
2022-12-11T01:38:40.250Z,93.16
2022-12-11T01:41:45.729Z,93.06
2022-12-11T01:45:08.436Z,93.23
2022-12-11T01:48:17.077Z,92.94
2022-12-11T01:51:23.024Z,92.99
2022-12-11T01:54:29.464Z,93.03
2022-12-11T01:57:34.721Z,92.78
2022-12-11T02:00:40.200Z,92.87
2022-12-11T02:03:45.647Z,92.82
2022-12-11T02:06:52.934Z,92.83
2022-12-11T02:09:58.448Z,92.63
2022-12-11T02:13:08.705Z,92.63
2022-12-11T02:16:20.504Z,92.71
2022-12-11T02:19:39.339Z,92.77
2022-12-11T02:23:00.124Z,92.43
2022-12-11T02:26:11.129Z,92.41
2022-12-11T02:29:21.040Z,92.17
2022-12-11T02:32:28.138Z,92.22
2022-12-11T02:35:35.124Z,92.13
2022-12-11T02:38:42.762Z,91.75
2022-12-11T02:41:50.071Z,91.99
2022-12-11T02:44:57.821Z,92.14
2022-12-11T02:48:05.850Z,91.90
2022-12-11T02:51:12.253Z,91.84
2022-12-11T02:54:20.669Z,91.78
2022-12-11T02:57:29.027Z,91.78
2022-12-11T03:00:34.621Z,91.81
2022-12-11T03:03:40.027Z,91.29
2022-12-11T03:06:47.660Z,90.99
2022-12-11T03:09:53.209Z,91.01
2022-12-11T03:12:59.907Z,90.93
2022-12-11T03:16:12.107Z,91.06
2022-12-11T03:19:20.205Z,90.87
2022-12-11T03:22:28.802Z,90.78
2022-12-11T03:25:37.608Z,90.63
2022-12-11T03:28:45.651Z,90.38
2022-12-11T03:31:54.962Z,90.25
2022-12-11T03:35:04.585Z,90.40
2022-12-11T03:38:13.871Z,90.45
2022-12-11T03:41:20.425Z,90.36
2022-12-11T03:44:27.570Z,90.33
2022-12-11T03:47:33.630Z,90.20
2022-12-11T03:50:39.802Z,90.29
2022-12-11T03:53:46.232Z,89.94
2022-12-11T03:56:52.147Z,89.61
2022-12-11T03:59:57.607Z,89.66
2022-12-11T04:03:16.045Z,89.01
2022-12-11T04:06:21.490Z,89.17
2022-12-11T04:09:26.843Z,89.06
2022-12-11T04:12:32.195Z,88.61
2022-12-11T04:15:37.927Z,88.39
2022-12-11T04:19:00.751Z,88.25
2022-12-11T04:22:29.278Z,88.47
2022-12-11T04:25:34.583Z,88.64
2022-12-11T04:28:40.630Z,88.59
2022-12-11T04:31:47.332Z,88.36
2022-12-11T04:34:52.658Z,88.46
2022-12-11T04:37:58.615Z,88.47
2022-12-11T04:41:07.070Z,88.40
2022-12-11T04:44:12.405Z,88.37
2022-12-11T04:47:17.754Z,88.69
2022-12-11T04:50:23.210Z,88.67
2022-12-11T04:53:28.909Z,88.52
2022-12-11T04:56:34.149Z,88.19
2022-12-11T04:59:39.837Z,87.65
2022-12-11T05:02:45.123Z,86.62
2022-12-11T05:05:50.839Z,86.18
2022-12-11T05:08:56.305Z,85.83
2022-12-11T05:12:01.781Z,86.04
2022-12-11T05:15:08.771Z,85.72
2022-12-11T05:18:14.501Z,85.49
2022-12-11T05:21:19.833Z,85.57
2022-12-11T05:24:25.146Z,85.85
2022-12-11T05:27:30.490Z,85.64
2022-12-11T05:30:35.696Z,86.07
2022-12-11T05:33:41.686Z,85.91
2022-12-11T05:36:47.301Z,86.08
2022-12-11T05:39:52.630Z,85.99
2022-12-11T05:42:58.302Z,86.10
2022-12-11T05:46:08.011Z,86.04
2022-12-11T05:49:13.423Z,86.17
2022-12-11T05:52:18.874Z,86.17
2022-12-11T05:55:24.143Z,86.25
2022-12-11T05:58:29.564Z,86.17
2022-12-11T06:01:36.184Z,86.24
2022-12-11T06:04:41.696Z,86.39
2022-12-11T06:07:47.071Z,86.57
2022-12-11T06:10:52.645Z,86.66
2022-12-11T06:13:58.306Z,86.73
2022-12-11T06:17:03.771Z,87.09
2022-12-11T06:20:09.543Z,87.30
2022-12-11T06:23:14.881Z,87.36
2022-12-11T06:26:20.871Z,87.37
2022-12-11T06:29:26.306Z,87.71
2022-12-11T06:32:31.566Z,87.75
2022-12-11T06:35:42.100Z,87.59
2022-12-11T06:38:48.631Z,87.74
2022-12-11T06:41:54.359Z,87.39
2022-12-11T06:44:59.923Z,87.37
2022-12-11T06:48:05.348Z,87.12
2022-12-11T06:51:12.475Z,86.82
2022-12-11T06:54:17.825Z,87.27
2022-12-11T06:57:23.139Z,87.43
2022-12-11T07:00:28.868Z,87.23
2022-12-11T07:03:34.108Z,87.13
2022-12-11T07:06:39.433Z,87.31
2022-12-11T07:09:44.691Z,87.55
2022-12-11T07:12:50.005Z,87.55
2022-12-11T07:15:55.350Z,87.76
2022-12-11T07:19:00.657Z,87.84
2022-12-11T07:22:06.001Z,87.45
2022-12-11T07:25:11.869Z,87.17
2022-12-11T07:28:17.409Z,87.14
2022-12-11T07:31:23.886Z,87.38
2022-12-11T07:34:29.417Z,87.10
2022-12-11T07:37:34.681Z,87.22
2022-12-11T07:40:40.043Z,86.23
2022-12-11T07:43:45.497Z,85.93
2022-12-11T07:46:50.859Z,85.93
2022-12-11T07:49:56.447Z,85.49
2022-12-11T07:53:02.900Z,84.88
2022-12-11T07:56:09.070Z,84.91
2022-12-11T07:59:14.849Z,84.47
2022-12-11T08:02:20.108Z,83.97
2022-12-11T08:05:25.605Z,84.22
2022-12-11T08:08:30.941Z,84.20
2022-12-11T08:11:38.407Z,83.92
2022-12-11T08:14:43.605Z,84.08
2022-12-11T08:17:48.962Z,84.25
2022-12-11T08:20:54.442Z,83.81
2022-12-11T08:23:59.737Z,83.82
2022-12-11T08:27:05.544Z,83.79
2022-12-11T08:30:11.717Z,83.82
2022-12-11T08:33:18.135Z,83.71
2022-12-11T08:36:23.772Z,83.19
2022-12-11T08:39:29.171Z,82.69
2022-12-11T08:42:35.076Z,82.51
2022-12-11T08:45:40.632Z,82.13
2022-12-11T08:48:46.001Z,82.23
2022-12-11T08:51:51.283Z,82.46
2022-12-11T08:54:56.512Z,82.62
2022-12-11T08:58:01.783Z,82.42
2022-12-11T09:01:11.135Z,82.47
2022-12-11T09:04:16.416Z,81.93
2022-12-11T09:07:21.879Z,81.89
2022-12-11T09:10:27.359Z,81.91
2022-12-11T09:13:32.713Z,82.18
2022-12-11T09:16:40.464Z,82.56
2022-12-11T09:19:46.394Z,82.43
2022-12-11T09:22:51.830Z,82.18
2022-12-11T09:25:57.450Z,82.27
2022-12-11T09:29:03.638Z,82.28
2022-12-11T09:32:08.994Z,82.31
2022-12-11T09:35:14.325Z,82.46
2022-12-11T09:38:19.810Z,82.39
2022-12-11T09:41:41.577Z,82.28
2022-12-11T09:44:48.031Z,82.23
2022-12-11T09:47:55.353Z,82.15
2022-12-11T09:51:06.420Z,82.13
2022-12-11T09:54:13.897Z,82.07
2022-12-11T09:57:25.091Z,81.70
2022-12-11T10:00:34.898Z,82.12
2022-12-11T10:03:52.157Z,82.22
2022-12-11T10:07:02.396Z,82.44
2022-12-11T10:10:18.101Z,82.14
2022-12-11T10:13:29.086Z,82.09
2022-12-11T10:16:37.525Z,81.60
2022-12-11T10:19:43.326Z,81.96
2022-12-11T10:22:49.540Z,82.44
2022-12-11T10:25:58.621Z,82.20
2022-12-11T10:29:04.083Z,82.04
2022-12-11T10:32:16.990Z,81.96
2022-12-11T10:35:28.091Z,81.71
2022-12-11T10:38:34.448Z,82.16
2022-12-11T10:41:40.999Z,82.14
2022-12-11T10:44:57.709Z,82.06
2022-12-11T10:48:07.011Z,82.37
2022-12-11T10:51:12.614Z,81.62
2022-12-11T10:59:02.421Z,81.84
2022-12-11T11:02:18.630Z,81.33
2022-12-11T11:05:30.456Z,81.66
2022-12-11T11:08:41.011Z,82.08
2022-12-11T11:11:50.958Z,81.79
2022-12-11T11:15:03.597Z,81.53
2022-12-11T11:18:13.988Z,81.68
2022-12-11T11:21:20.367Z,81.63
2022-12-11T11:24:28.889Z,82.42
2022-12-11T11:27:37.134Z,82.30
2022-12-11T11:30:43.162Z,81.56
2022-12-11T11:33:53.783Z,80.92
2022-12-11T11:37:05.610Z,80.84
2022-12-11T11:40:14.804Z,81.07
2022-12-11T11:43:24.197Z,81.34
2022-12-11T11:46:33.580Z,81.36
2022-12-11T11:49:45.829Z,81.57
2022-12-11T11:52:58.913Z,81.49
2022-12-11T11:56:08.418Z,81.07
2022-12-11T11:59:19.770Z,80.08
2022-12-11T12:02:25.464Z,79.74
2022-12-11T12:05:37.870Z,79.08
2022-12-11T12:08:47.938Z,78.02
2022-12-11T12:11:58.384Z,77.79
2022-12-11T12:15:11.243Z,77.85
2022-12-11T12:18:21.928Z,78.17
2022-12-11T12:21:32.218Z,78.56
2022-12-11T12:24:41.684Z,78.06
2022-12-11T12:27:53.256Z,77.74
2022-12-11T12:31:05.934Z,77.55
2022-12-11T12:34:19.165Z,77.64
2022-12-11T12:37:44.016Z,77.60
2022-12-11T12:40:57.938Z,77.70
2022-12-11T12:44:10.166Z,77.46
2022-12-11T12:47:20.519Z,77.91
2022-12-11T12:50:28.903Z,77.72
2022-12-11T12:53:39.597Z,77.80
2022-12-11T12:56:47.067Z,78.02
2022-12-11T12:59:56.546Z,78.38
2022-12-11T13:03:03.621Z,78.34
2022-12-11T13:06:10.563Z,78.47
2022-12-11T13:09:18.164Z,78.82
2022-12-11T13:12:33.162Z,79.18
2022-12-11T13:15:40.921Z,79.48
2022-12-11T13:18:47.635Z,79.59
2022-12-11T13:21:58.513Z,79.77
2022-12-11T13:25:18.019Z,80.19
2022-12-11T13:28:27.277Z,80.01
2022-12-11T13:31:33.899Z,80.24
2022-12-11T13:34:41.453Z,80.50
2022-12-11T13:37:48.048Z,80.75
2022-12-11T13:40:55.071Z,81.05
2022-12-11T13:44:01.147Z,81.24
2022-12-11T13:47:08.173Z,81.53
2022-12-11T13:50:16.264Z,81.86
2022-12-11T13:53:22.529Z,82.21
2022-12-11T13:56:27.851Z,82.73
2022-12-11T13:59:34.929Z,82.95
2022-12-11T14:02:42.574Z,83.29
2022-12-11T14:05:48.182Z,83.61
2022-12-11T14:08:55.226Z,83.76
2022-12-11T14:12:00.674Z,84.05
2022-12-11T14:15:06.838Z,84.18
2022-12-11T14:18:16.103Z,84.49
2022-12-11T14:21:22.751Z,84.53
2022-12-11T14:24:28.362Z,84.71
2022-12-11T14:27:34.281Z,84.76
2022-12-11T14:30:40.321Z,85.03
2022-12-11T14:33:49.088Z,85.07
2022-12-11T14:36:55.541Z,85.26
2022-12-11T14:40:02.246Z,85.60
2022-12-11T14:43:09.491Z,85.97
2022-12-11T14:46:18.251Z,86.00
2022-12-11T14:49:25.679Z,86.17
2022-12-11T14:52:34.090Z,86.36
2022-12-11T14:55:39.909Z,86.80
2022-12-11T14:58:49.331Z,86.98
2022-12-11T15:02:05.171Z,87.38
2022-12-11T15:05:15.395Z,87.95
2022-12-11T15:08:25.025Z,88.27
2022-12-11T15:11:33.142Z,88.59
2022-12-11T15:14:43.368Z,88.88
2022-12-11T15:17:52.847Z,89.19
2022-12-11T15:21:00.618Z,89.36
2022-12-11T15:24:08.442Z,89.99
2022-12-11T15:27:22.888Z,90.22
2022-12-11T15:30:29.783Z,90.33
2022-12-11T15:33:46.270Z,90.71
2022-12-11T15:36:51.874Z,90.81
2022-12-11T15:39:58.807Z,90.92
2022-12-11T15:43:04.375Z,91.55
2022-12-11T15:46:09.980Z,92.03
2022-12-11T15:49:15.309Z,92.27
2022-12-11T15:52:20.963Z,92.52
2022-12-11T15:55:36.149Z,92.88
2022-12-11T15:58:41.718Z,93.89
2022-12-11T16:01:47.269Z,94.10
2022-12-11T16:04:52.777Z,94.14
2022-12-11T16:07:59.644Z,94.40
2022-12-11T16:11:05.209Z,94.63
2022-12-11T16:14:10.579Z,94.81
2022-12-11T16:17:16.651Z,94.61
2022-12-11T16:20:22.075Z,94.81
2022-12-11T16:23:29.491Z,95.14
2022-12-11T16:26:34.893Z,95.36
2022-12-11T16:29:42.132Z,95.25
2022-12-11T16:32:47.423Z,95.38
2022-12-11T16:35:53.016Z,95.43
2022-12-11T16:38:58.390Z,95.93
2022-12-11T16:42:03.749Z,96.23
2022-12-11T16:45:12.204Z,96.56
2022-12-11T16:48:17.618Z,96.83
2022-12-11T16:51:23.011Z,97.38
2022-12-11T16:54:28.263Z,97.30
2022-12-11T16:57:34.614Z,97.25
2022-12-11T17:00:40.033Z,97.18
2022-12-11T17:03:45.411Z,97.32
2022-12-11T17:06:50.810Z,97.14
2022-12-11T17:09:57.363Z,97.35
2022-12-11T17:13:02.730Z,97.42
2022-12-11T17:16:09.102Z,97.16
2022-12-11T17:19:14.475Z,97.11
2022-12-11T17:22:19.876Z,97.32
2022-12-11T17:25:25.301Z,97.45
2022-12-11T17:28:30.536Z,97.52
2022-12-11T17:31:35.955Z,97.77
2022-12-11T17:34:41.280Z,97.93
2022-12-11T17:37:47.348Z,97.95
2022-12-11T17:40:52.722Z,98.29
2022-12-11T17:43:58.024Z,98.61
2022-12-11T17:47:09.152Z,98.97
2022-12-11T17:50:16.452Z,99.35
2022-12-11T17:53:22.226Z,99.73
2022-12-11T17:56:28.314Z,99.86
2022-12-11T17:59:36.441Z,99.99
2022-12-11T18:02:41.616Z,99.94
2022-12-11T18:05:47.740Z,99.95
2022-12-11T18:08:53.127Z,100.00
2022-12-11T18:11:58.583Z,99.99
2022-12-11T18:15:04.198Z,100.00
2022-12-11T18:18:09.766Z,100.00
2022-12-11T18:21:16.622Z,100.00
2022-12-11T18:24:22.419Z,100.00
2022-12-11T18:27:27.859Z,100.00
2022-12-11T18:30:33.312Z,100.00
2022-12-11T18:33:39.501Z,100.00
2022-12-11T18:36:44.834Z,100.00
2022-12-11T18:39:50.183Z,100.00
2022-12-11T18:42:55.504Z,100.00
2022-12-11T18:46:00.847Z,100.00
2022-12-11T18:49:06.693Z,100.00
2022-12-11T18:52:12.126Z,100.00
2022-12-11T18:55:17.566Z,100.00
2022-12-11T18:58:22.896Z,100.00
2022-12-11T19:01:29.772Z,100.00
2022-12-11T19:04:36.124Z,100.00
2022-12-11T19:07:41.643Z,100.00
2022-12-11T19:10:48.069Z,100.00
2022-12-11T19:13:54.887Z,100.00
2022-12-11T19:17:00.400Z,100.00
2022-12-11T19:20:32.278Z,100.00
2022-12-11T19:23:31.868Z,100.00
2022-12-11T19:26:37.375Z,100.00
2022-12-11T19:29:42.750Z,100.00
2022-12-11T19:32:48.122Z,100.00
2022-12-11T19:36:02.350Z,100.00
2022-12-11T19:39:12.803Z,100.00
2022-12-11T19:42:18.602Z,100.00
2022-12-11T19:45:24.022Z,100.00
2022-12-11T19:48:29.760Z,100.00
2022-12-11T19:51:38.551Z,100.00
2022-12-11T19:54:44.100Z,100.00
2022-12-11T19:57:49.451Z,100.00
2022-12-11T20:00:54.858Z,100.00
2022-12-11T20:04:01.002Z,100.00
2022-12-11T20:07:06.309Z,100.00
2022-12-11T20:10:12.157Z,100.00
2022-12-11T20:13:17.648Z,100.00
2022-12-11T20:16:46.348Z,100.00
2022-12-11T20:19:49.820Z,100.00
2022-12-11T20:22:55.642Z,100.00
2022-12-11T20:26:01.115Z,100.00
2022-12-11T20:29:08.506Z,100.00
2022-12-11T20:32:13.861Z,100.00
2022-12-11T20:35:19.880Z,100.00
2022-12-11T20:38:28.735Z,100.00
2022-12-11T20:41:36.672Z,100.00
2022-12-11T20:44:47.279Z,100.00
2022-12-11T20:47:54.773Z,100.00
2022-12-11T20:51:04.619Z,100.00
2022-12-11T20:54:09.888Z,100.00
2022-12-11T20:57:16.562Z,100.00
2022-12-11T21:00:25.019Z,100.00
2022-12-11T21:03:31.577Z,100.00
2022-12-11T21:06:38.826Z,100.00
2022-12-11T21:09:44.319Z,100.00
2022-12-11T21:12:49.537Z,100.00
2022-12-11T21:15:57.061Z,100.00
2022-12-11T21:19:02.811Z,100.00
2022-12-11T21:22:08.254Z,100.00
2022-12-11T21:25:14.001Z,100.00
2022-12-11T21:28:19.861Z,100.00
2022-12-11T21:31:25.255Z,100.00
2022-12-11T21:34:30.624Z,100.00
2022-12-11T21:37:36.174Z,100.00
2022-12-11T21:40:41.996Z,100.00
2022-12-11T21:44:40.860Z,100.00
2022-12-11T21:47:13.334Z,100.00
2022-12-11T21:50:18.730Z,100.00
2022-12-11T21:53:24.153Z,100.00
2022-12-11T21:56:31.752Z,100.00
2022-12-11T21:59:37.241Z,100.00
2022-12-11T22:02:42.763Z,100.00
2022-12-11T22:05:48.444Z,100.00
2022-12-11T22:08:53.663Z,100.00
2022-12-11T22:11:59.386Z,100.00
2022-12-11T22:15:05.324Z,100.00
2022-12-11T22:18:10.761Z,100.00
2022-12-11T22:21:16.243Z,100.00
2022-12-11T22:24:21.592Z,100.00
2022-12-11T22:27:27.130Z,100.00
2022-12-11T22:30:33.113Z,100.00
2022-12-11T22:33:38.701Z,100.00
2022-12-11T22:36:43.999Z,100.00
2022-12-11T22:39:49.555Z,100.00
2022-12-11T22:42:55.249Z,100.00
2022-12-11T22:46:01.033Z,100.00
2022-12-11T22:49:06.405Z,100.00
2022-12-11T22:52:11.768Z,100.00
2022-12-11T22:55:17.518Z,100.00
2022-12-11T22:58:22.963Z,100.00
2022-12-11T23:01:28.511Z,100.00
2022-12-11T23:04:33.877Z,100.00
2022-12-11T23:07:39.472Z,100.00
2022-12-11T23:10:44.939Z,100.00
2022-12-11T23:13:50.490Z,100.00
2022-12-11T23:16:55.914Z,100.00
2022-12-11T23:20:03.721Z,100.00
2022-12-11T23:23:08.996Z,100.00
2022-12-11T23:26:15.021Z,100.00
2022-12-11T23:29:20.873Z,100.00
2022-12-11T23:32:26.268Z,100.00
2022-12-11T23:35:31.498Z,100.00
2022-12-11T23:38:37.404Z,100.00
2022-12-11T23:41:42.549Z,100.00
2022-12-11T23:44:47.785Z,100.00
2022-12-11T23:47:53.133Z,100.00
2022-12-11T23:51:00.736Z,100.00
2022-12-11T23:54:06.283Z,100.00
2022-12-11T23:57:11.556Z,100.00
